Time;durP1;ratioP1;P1;durP2;ratioP2;P2;SDS_P1;SDS_P2;PMS_P1;PMS_P2;Temp;Humidity;BMP_temperature;BMP_pressure;BME280_temperature;BME280_humidity;BME280_pressure;Samples;Min_cycle;Max_cycle;Signal;HPM_P1;HPM_P2
2021/01/17 00:01:29;;;;;;;;;;;1.50;77.30;;;;;;4984396;28;19926;-76
2021/01/17 00:03:55;;;;;;;;;;;1.50;77.20;;;;;;4982997;28;20465;-76
2021/01/17 00:06:21;;;;;;;;;;;1.50;77.40;;;;;;4979733;28;19934;-76
2021/01/17 00:08:48;;;;;;;;;;;1.50;77.30;;;;;;4982061;28;19933;-77
2021/01/17 00:11:14;;;;;;;;;;;1.40;77.30;;;;;;4964580;28;19926;-76
2021/01/17 00:13:40;;;;;;;;;;;1.40;77.30;;;;;;4977050;28;20021;-77
2021/01/17 00:16:07;;;;;;;;;;;1.40;77.30;;;;;;4982052;28;19938;-76
2021/01/17 00:18:33;;;;;;;;;;;1.30;77.30;;;;;;4967288;28;19926;-76
2021/01/17 00:21:07;;;;;;;;;;;1.30;77.60;;;;;;4966280;28;21875;-76
2021/01/17 00:23:35;;;;;;;;;;;1.30;77.70;;;;;;4983173;28;20405;-76
2021/01/17 00:26:01;;;;;;;;;;;1.30;77.70;;;;;;4982488;28;19932;-76
2021/01/17 00:28:28;;;;;;;;;;;1.30;77.70;;;;;;4964566;28;19926;-76
2021/01/17 00:30:54;;;;;;;;;;;1.30;77.70;;;;;;4983401;28;19934;-76
2021/01/17 00:33:21;;;;;;;;;;;1.30;77.60;;;;;;4966105;28;19932;-76
2021/01/17 00:35:47;;;;;;;;;;;1.30;77.60;;;;;;4982185;28;19929;-76
2021/01/17 00:38:13;;;;;;;;;;;1.30;77.60;;;;;;4984443;28;19925;-76
2021/01/17 00:40:39;;;;;;;;;;;1.30;77.60;;;;;;4978115;28;19934;-76
2021/01/17 00:43:05;;;;;;;;;;;1.30;77.60;;;;;;4984483;28;19930;-76
2021/01/17 00:45:31;;;;;;;;;;;1.40;77.60;;;;;;4982373;28;19945;-76
2021/01/17 00:47:57;;;;;;;;;;;1.40;77.60;;;;;;4967141;28;20405;-76
2021/01/17 00:50:25;;;;;;;;;;;1.40;77.40;;;;;;4983798;28;20293;-76
2021/01/17 00:52:52;;;;;;;;;;;1.40;77.40;;;;;;4984934;28;20021;-76
2021/01/17 00:55:19;;;;;;;;;;;1.30;77.30;;;;;;4986476;28;19926;-76
2021/01/17 00:57:45;;;;;;;;;;;1.30;77.40;;;;;;4967731;28;19945;-76
2021/01/17 01:00:13;;;;;;;;;;;1.30;77.60;;;;;;4980217;28;19936;-76
2021/01/17 01:02:40;;;;;;;;;;;1.30;77.40;;;;;;4965958;28;19967;-76
2021/01/17 01:05:08;;;;;;;;;;;1.30;77.40;;;;;;4978952;28;19937;-76
2021/01/17 01:07:34;;;;;;;;;;;1.40;77.40;;;;;;4982138;28;19951;-76
2021/01/17 01:10:00;;;;;;;;;;;1.40;77.30;;;;;;4988047;28;20299;-76
2021/01/17 01:12:26;;;;;;;;;;;1.40;77.30;;;;;;4982965;28;20895;-76
2021/01/17 01:14:52;;;;;;;;;;;1.40;77.40;;;;;;4981598;28;20029;-76
2021/01/17 01:17:19;;;;;;;;;;;1.40;77.20;;;;;;4982406;28;20405;-76
2021/01/17 01:19:48;;;;;;;;;;;1.40;77.20;;;;;;4984096;28;19972;-76
2021/01/17 01:22:14;;;;;;;;;;;1.40;77.10;;;;;;4982419;28;19932;-76
2021/01/17 01:24:40;;;;;;;;;;;1.40;77.00;;;;;;4978983;28;19934;-76
2021/01/17 01:27:06;;;;;;;;;;;1.40;76.90;;;;;;4980476;28;19926;-77
2021/01/17 01:29:33;;;;;;;;;;;1.40;76.90;;;;;;4998979;28;20603;-76
2021/01/17 01:31:59;;;;;;;;;;;1.40;76.70;;;;;;4964034;28;19926;-76
2021/01/17 01:34:26;;;;;;;;;;;1.40;76.70;;;;;;4980551;28;20133;-76
2021/01/17 01:36:52;;;;;;;;;;;1.40;76.80;;;;;;4968922;28;20405;-76
2021/01/17 01:39:18;;;;;;;;;;;1.40;76.70;;;;;;4977847;28;19925;-76
2021/01/17 01:41:44;;;;;;;;;;;1.40;76.60;;;;;;4981148;28;20398;-76
2021/01/17 01:44:11;;;;;;;;;;;1.40;76.70;;;;;;4984215;28;19972;-76
2021/01/17 01:46:39;;;;;;;;;;;1.40;76.70;;;;;;4978643;28;19929;-76
2021/01/17 01:49:06;;;;;;;;;;;1.40;76.70;;;;;;4956257;28;20021;-76
2021/01/17 01:51:33;;;;;;;;;;;1.40;76.70;;;;;;4971138;28;19933;-76
2021/01/17 01:53:59;;;;;;;;;;;1.40;76.70;;;;;;4960650;28;19930;-76
2021/01/17 01:56:29;;;;;;;;;;;1.40;76.60;;;;;;4972647;28;20306;-76
2021/01/17 01:58:55;;;;;;;;;;;1.40;76.60;;;;;;4972772;28;19945;-76
2021/01/17 02:01:22;;;;;;;;;;;1.40;76.60;;;;;;4975388;28;20045;-76
2021/01/17 02:03:49;;;;;;;;;;;1.40;76.70;;;;;;4973909;28;19934;-76
2021/01/17 02:06:20;;;;;;;;;;;1.40;76.80;;;;;;4975908;28;19930;-76
2021/01/17 02:08:56;;;;;;;;;;;1.40;76.80;;;;;;4976719;28;20493;-76
2021/01/17 02:11:44;;;;;;;;;;;1.40;76.90;;;;;;4970065;28;20277;-76
2021/01/17 02:14:17;;;;;;;;;;;1.40;76.80;;;;;;4971031;28;20349;-75
2021/01/17 02:16:48;;;;;;;;;;;1.40;76.70;;;;;;4973225;28;19933;-76
2021/01/17 02:19:16;;;;;;;;;;;1.30;76.80;;;;;;4972926;28;20313;-76
2021/01/17 02:21:48;;;;;;;;;;;1.40;76.60;;;;;;4957637;28;20297;-76
2021/01/17 02:24:17;;;;;;;;;;;1.30;76.60;;;;;;4973322;28;19930;-76
2021/01/17 02:26:43;;;;;;;;;;;1.30;76.80;;;;;;4978063;28;19940;-76
2021/01/17 02:29:10;;;;;;;;;;;1.30;76.80;;;;;;4977008;28;19934;-76
2021/01/17 02:31:38;;;;;;;;;;;1.30;76.80;;;;;;4960954;28;19940;-76
2021/01/17 02:34:05;;;;;;;;;;;1.30;76.80;;;;;;4981555;28;20355;-76
2021/01/17 02:36:40;;;;;;;;;;;1.30;76.70;;;;;;4964101;28;19929;-76
2021/01/17 02:39:12;;;;;;;;;;;1.30;76.80;;;;;;4976018;28;19934;-76
2021/01/17 02:41:43;;;;;;;;;;;1.30;76.90;;;;;;4955656;28;20041;-75
2021/01/17 02:44:11;;;;;;;;;;;1.30;76.90;;;;;;4972508;28;19933;-76
2021/01/17 02:46:39;;;;;;;;;;;1.30;77.00;;;;;;4985980;28;20242;-76
2021/01/17 02:49:06;;;;;;;;;;;1.30;77.00;;;;;;4979889;28;19965;-76
2021/01/17 02:51:32;;;;;;;;;;;1.30;77.00;;;;;;4958041;28;19925;-76
2021/01/17 02:54:06;;;;;;;;;;;1.30;76.90;;;;;;4975875;28;19936;-75
2021/01/17 02:56:32;;;;;;;;;;;1.30;77.00;;;;;;4958958;28;19937;-76
2021/01/17 02:59:00;;;;;;;;;;;1.30;76.90;;;;;;4972871;28;19938;-76
2021/01/17 03:01:29;;;;;;;;;;;1.30;77.00;;;;;;4960345;28;19930;-75
2021/01/17 03:04:09;;;;;;;;;;;1.30;76.90;;;;;;4975519;28;20412;-76
2021/01/17 03:06:39;;;;;;;;;;;1.30;77.00;;;;;;4975048;28;19933;-76
2021/01/17 03:09:05;;;;;;;;;;;1.40;77.00;;;;;;4960777;28;19926;-76
2021/01/17 03:11:31;;;;;;;;;;;1.40;76.90;;;;;;4962219;28;19942;-76
2021/01/17 03:13:57;;;;;;;;;;;1.40;76.90;;;;;;4965891;28;19934;-76
2021/01/17 03:16:23;;;;;;;;;;;1.30;77.00;;;;;;4986959;28;19961;-76
2021/01/17 03:18:50;;;;;;;;;;;1.30;76.90;;;;;;4983569;28;20024;-76
2021/01/17 03:21:16;;;;;;;;;;;1.30;77.00;;;;;;4962510;28;19930;-76
2021/01/17 03:23:42;;;;;;;;;;;1.30;77.00;;;;;;4977025;28;20457;-76
2021/01/17 03:26:09;;;;;;;;;;;1.30;77.00;;;;;;4960212;28;20304;-76
2021/01/17 03:28:35;;;;;;;;;;;1.30;77.00;;;;;;4959308;28;19926;-76
2021/01/17 03:31:02;;;;;;;;;;;1.40;77.00;;;;;;4958521;28;20016;-76
2021/01/17 03:33:28;;;;;;;;;;;1.40;76.90;;;;;;4957185;28;19937;-76
2021/01/17 03:35:54;;;;;;;;;;;1.30;76.80;;;;;;4958050;28;20444;-76
2021/01/17 03:38:21;;;;;;;;;;;1.30;76.80;;;;;;4972746;28;20467;-76
2021/01/17 03:40:47;;;;;;;;;;;1.30;76.80;;;;;;4956659;28;19929;-76
2021/01/17 03:43:13;;;;;;;;;;;1.30;76.80;;;;;;4977633;28;19929;-76
2021/01/17 03:45:39;;;;;;;;;;;1.30;76.80;;;;;;4978571;28;20470;-76
2021/01/17 03:48:06;;;;;;;;;;;1.30;76.90;;;;;;4980818;28;19934;-76
2021/01/17 03:50:33;;;;;;;;;;;1.30;77.00;;;;;;4983700;28;19926;-76
2021/01/17 03:52:59;;;;;;;;;;;1.30;77.10;;;;;;4967113;28;19953;-76
2021/01/17 03:55:25;;;;;;;;;;;1.30;77.00;;;;;;4983927;28;19926;-77
2021/01/17 03:57:52;;;;;;;;;;;1.30;77.00;;;;;;4973839;28;19945;-76
2021/01/17 04:00:18;;;;;;;;;;;1.30;77.10;;;;;;4985660;28;19961;-76
2021/01/17 04:02:44;;;;;;;;;;;1.30;77.10;;;;;;4981803;28;20306;-76
2021/01/17 04:05:11;;;;;;;;;;;1.30;77.10;;;;;;4947487;28;20002;-76
2021/01/17 04:07:38;;;;;;;;;;;1.30;77.00;;;;;;4962841;28;20983;-76
2021/01/17 04:10:04;;;;;;;;;;;1.40;76.90;;;;;;4983265;28;19997;-76
2021/01/17 04:12:31;;;;;;;;;;;1.40;76.90;;;;;;4964758;28;19926;-76
2021/01/17 04:14:57;;;;;;;;;;;1.40;76.70;;;;;;4965478;28;19933;-76
2021/01/17 04:17:24;;;;;;;;;;;1.40;76.70;;;;;;4979159;28;19934;-76
2021/01/17 04:19:50;;;;;;;;;;;1.40;76.70;;;;;;4981840;28;19930;-76
2021/01/17 04:22:16;;;;;;;;;;;1.40;76.70;;;;;;4983761;28;20309;-76
2021/01/17 04:24:43;;;;;;;;;;;1.40;76.70;;;;;;4983238;28;19940;-76
2021/01/17 04:27:09;;;;;;;;;;;1.40;76.80;;;;;;4981779;28;19940;-76
2021/01/17 04:29:35;;;;;;;;;;;1.30;76.80;;;;;;4983727;28;19932;-76
2021/01/17 04:32:02;;;;;;;;;;;1.40;76.80;;;;;;4981928;28;20024;-76
2021/01/17 04:34:30;;;;;;;;;;;1.30;76.80;;;;;;4976363;28;19930;-76
2021/01/17 04:37:00;;;;;;;;;;;1.30;76.90;;;;;;4978875;28;19925;-76
2021/01/17 04:39:26;;;;;;;;;;;1.30;77.00;;;;;;4980962;28;19934;-76
2021/01/17 04:41:55;;;;;;;;;;;1.30;77.00;;;;;;4967796;28;19932;-76
2021/01/17 04:44:27;;;;;;;;;;;1.30;76.90;;;;;;4978944;28;19933;-76
2021/01/17 04:46:54;;;;;;;;;;;1.40;76.90;;;;;;4980827;28;19930;-76
2021/01/17 04:49:23;;;;;;;;;;;1.40;76.80;;;;;;4983261;28;20337;-76
2021/01/17 04:51:50;;;;;;;;;;;1.30;76.80;;;;;;4965771;28;19930;-76
2021/01/17 04:54:19;;;;;;;;;;;1.30;76.80;;;;;;4984011;28;19937;-76
2021/01/17 04:56:52;;;;;;;;;;;1.30;76.90;;;;;;4982225;28;20293;-76
2021/01/17 04:59:24;;;;;;;;;;;1.20;77.10;;;;;;4981807;28;19949;-76
2021/01/17 05:01:54;;;;;;;;;;;1.30;77.10;;;;;;4981054;28;19938;-76
2021/01/17 05:04:41;;;;;;;;;;;1.30;77.20;;;;;;4986017;28;19925;-76
2021/01/17 05:07:21;;;;;;;;;;;1.30;77.10;;;;;;4972458;28;19932;-76
2021/01/17 05:10:06;;;;;;;;;;;1.30;77.00;;;;;;4983405;28;19925;-76
2021/01/17 05:12:40;;;;;;;;;;;1.30;77.00;;;;;;4978679;28;19926;-76
2021/01/17 05:15:08;;;;;;;;;;;1.40;77.10;;;;;;4983719;28;19978;-76
2021/01/17 05:17:38;;;;;;;;;;;1.30;76.90;;;;;;4985121;28;20012;-76
2021/01/17 05:20:05;;;;;;;;;;;1.30;77.20;;;;;;4982327;28;19933;-76
2021/01/17 05:22:31;;;;;;;;;;;1.30;77.20;;;;;;4984108;28;19926;-76
2021/01/17 05:24:58;;;;;;;;;;;1.30;77.10;;;;;;4983182;28;19926;-76
2021/01/17 05:27:24;;;;;;;;;;;1.30;77.10;;;;;;4983242;28;19926;-76
2021/01/17 05:29:50;;;;;;;;;;;1.40;77.10;;;;;;4982451;28;19941;-76
2021/01/17 05:32:17;;;;;;;;;;;1.40;77.10;;;;;;4983049;28;19944;-76
2021/01/17 05:34:43;;;;;;;;;;;1.40;77.20;;;;;;4984160;28;19933;-76
2021/01/17 05:37:11;;;;;;;;;;;1.40;77.20;;;;;;4978513;28;20420;-76
2021/01/17 05:39:55;;;;;;;;;;;1.40;77.10;;;;;;4981919;28;19932;-76
2021/01/17 05:42:26;;;;;;;;;;;1.40;77.20;;;;;;4981076;28;19930;-76
2021/01/17 05:44:56;;;;;;;;;;;1.40;77.20;;;;;;4962761;28;20275;-76
2021/01/17 05:47:23;;;;;;;;;;;1.40;77.30;;;;;;4982314;28;19937;-76
2021/01/17 05:49:50;;;;;;;;;;;1.40;77.30;;;;;;4980297;28;19925;-76
2021/01/17 05:52:17;;;;;;;;;;;1.30;77.30;;;;;;4981831;28;19933;-76
2021/01/17 05:54:47;;;;;;;;;;;1.20;77.70;;;;;;4977303;28;19926;-76
2021/01/17 05:57:17;;;;;;;;;;;1.10;78.10;;;;;;4984096;28;19926;-76
2021/01/17 05:59:43;;;;;;;;;;;1.10;78.60;;;;;;4981196;28;19929;-76
2021/01/17 06:02:14;;;;;;;;;;;1.20;78.70;;;;;;4994519;28;19981;-76
2021/01/17 06:04:42;;;;;;;;;;;1.20;78.70;;;;;;4984305;28;19930;-76
2021/01/17 06:07:09;;;;;;;;;;;1.30;78.80;;;;;;4985287;28;20457;-76
2021/01/17 06:09:39;;;;;;;;;;;1.30;78.80;;;;;;4982643;28;20278;-76
2021/01/17 06:12:06;;;;;;;;;;;1.30;78.90;;;;;;4980774;28;19930;-76
2021/01/17 06:14:32;;;;;;;;;;;1.30;79.00;;;;;;4981008;28;19933;-76
2021/01/17 06:16:59;;;;;;;;;;;1.30;79.00;;;;;;4984310;28;19952;-76
2021/01/17 06:19:36;;;;;;;;;;;1.30;79.10;;;;;;4987488;28;19945;-75
2021/01/17 06:22:05;;;;;;;;;;;1.30;79.00;;;;;;4986161;28;19940;-76
2021/01/17 06:24:33;;;;;;;;;;;1.30;79.10;;;;;;4985565;28;20263;-76
2021/01/17 06:27:00;;;;;;;;;;;1.40;79.20;;;;;;4981478;28;19938;-76
2021/01/17 06:29:53;;;;;;;;;;;1.40;79.20;;;;;;4969267;28;19941;-76
2021/01/17 06:32:20;;;;;;;;;;;1.40;79.10;;;;;;4978313;28;19933;-76
2021/01/17 06:34:54;;;;;;;;;;;1.40;79.20;;;;;;4984991;28;20366;-76
2021/01/17 06:37:21;;;;;;;;;;;1.40;79.20;;;;;;4986279;28;19953;-76
2021/01/17 06:39:52;;;;;;;;;;;1.40;79.10;;;;;;4973651;28;20356;-76
2021/01/17 06:42:19;;;;;;;;;;;1.40;78.90;;;;;;4973110;28;19926;-76
2021/01/17 06:44:46;;;;;;;;;;;1.40;78.80;;;;;;4982582;28;19930;-76
2021/01/17 06:47:14;;;;;;;;;;;1.40;78.90;;;;;;4979682;28;19926;-76
2021/01/17 06:49:41;;;;;;;;;;;1.40;78.80;;;;;;4988943;28;20366;-76
2021/01/17 06:52:08;;;;;;;;;;;1.40;78.90;;;;;;4979675;28;19926;-76
2021/01/17 06:54:34;;;;;;;;;;;1.50;78.90;;;;;;4985587;28;19930;-76
2021/01/17 06:57:01;;;;;;;;;;;1.50;78.80;;;;;;4985661;28;19955;-76
2021/01/17 06:59:34;;;;;;;;;;;1.50;78.70;;;;;;4985349;28;19926;-76
2021/01/17 07:02:12;;;;;;;;;;;1.50;78.70;;;;;;4984804;28;19933;-76
2021/01/17 07:04:41;;;;;;;;;;;1.50;78.80;;;;;;4981093;28;19925;-76
2021/01/17 07:07:26;;;;;;;;;;;1.40;78.60;;;;;;4985439;28;20362;-76
2021/01/17 07:10:18;;;;;;;;;;;1.40;78.70;;;;;;4984326;28;19926;-76
2021/01/17 07:12:52;;;;;;;;;;;1.40;78.80;;;;;;4961288;28;19937;-76
2021/01/17 07:15:28;;;;;;;;;;;1.40;78.90;;;;;;4986356;28;19929;-76
2021/01/17 07:17:57;;;;;;;;;;;1.40;79.00;;;;;;4987983;28;19926;-76
2021/01/17 07:20:27;;;;;;;;;;;1.50;78.80;;;;;;4994137;28;19929;-76
2021/01/17 07:22:54;;;;;;;;;;;1.50;78.70;;;;;;4985103;28;19926;-76
2021/01/17 07:25:21;;;;;;;;;;;1.50;78.70;;;;;;4972278;28;19934;-76
2021/01/17 07:28:04;;;;;;;;;;;1.50;78.80;;;;;;4983056;28;20409;-76
2021/01/17 07:30:40;;;;;;;;;;;1.50;78.60;;;;;;4981407;28;19926;-76
2021/01/17 07:33:08;;;;;;;;;;;1.40;78.70;;;;;;4970342;28;19957;-76
2021/01/17 07:35:41;;;;;;;;;;;1.40;78.80;;;;;;4983914;28;19930;-76
2021/01/17 07:38:28;;;;;;;;;;;1.40;78.80;;;;;;4986928;28;20285;-76
2021/01/17 07:40:56;;;;;;;;;;;1.40;79.00;;;;;;4963314;28;19936;-76
2021/01/17 07:43:24;;;;;;;;;;;1.50;79.00;;;;;;4976706;28;19926;-76
2021/01/17 07:45:51;;;;;;;;;;;1.50;79.00;;;;;;4983341;28;20531;-76
2021/01/17 07:48:18;;;;;;;;;;;1.50;79.00;;;;;;4979779;28;20570;-76
2021/01/17 07:50:45;;;;;;;;;;;1.60;79.00;;;;;;4982661;28;19933;-76
2021/01/17 07:53:31;;;;;;;;;;;1.50;79.00;;;;;;4983943;28;19937;-76
2021/01/17 07:56:01;;;;;;;;;;;1.50;79.10;;;;;;4966246;28;19930;-76
2021/01/17 07:58:33;;;;;;;;;;;1.50;79.20;;;;;;4981770;28;19930;-76
2021/01/17 08:01:00;;;;;;;;;;;1.50;79.20;;;;;;4970125;28;20380;-76
2021/01/17 08:03:26;;;;;;;;;;;1.60;79.10;;;;;;4967403;28;20378;-76
2021/01/17 08:05:54;;;;;;;;;;;1.60;79.10;;;;;;4980402;28;20248;-76
2021/01/17 08:08:35;;;;;;;;;;;1.60;79.10;;;;;;4986058;28;19926;-76
2021/01/17 08:11:01;;;;;;;;;;;1.70;79.00;;;;;;4984138;28;19929;-76
2021/01/17 08:13:34;;;;;;;;;;;1.70;79.00;;;;;;4963299;28;19960;-76
2021/01/17 08:16:14;;;;;;;;;;;1.70;79.00;;;;;;4983163;28;19976;-76
2021/01/17 08:18:41;;;;;;;;;;;1.70;78.90;;;;;;4984348;28;19988;-76
2021/01/17 08:21:19;;;;;;;;;;;1.70;79.00;;;;;;4983515;28;19934;-76
2021/01/17 08:24:04;;;;;;;;;;;1.70;79.00;;;;;;4978269;28;20012;-76
2021/01/17 08:26:50;;;;;;;;;;;1.70;79.00;;;;;;4982537;28;19934;-77
2021/01/17 08:29:16;;;;;;;;;;;1.60;79.10;;;;;;4982080;28;19932;-76
2021/01/17 08:31:43;;;;;;;;;;;1.70;79.10;;;;;;4982787;28;19934;-76
2021/01/17 08:34:11;;;;;;;;;;;1.70;79.10;;;;;;4970302;28;20039;-76
2021/01/17 08:36:39;;;;;;;;;;;1.70;79.10;;;;;;4979230;28;19930;-76
2021/01/17 08:39:07;;;;;;;;;;;1.70;79.00;;;;;;5000737;28;19933;-76
2021/01/17 08:41:34;;;;;;;;;;;1.70;79.10;;;;;;4983155;28;19949;-76
2021/01/17 08:44:00;;;;;;;;;;;1.70;79.00;;;;;;4968803;28;19926;-76
2021/01/17 08:46:37;;;;;;;;;;;1.70;79.10;;;;;;4986709;28;19940;-76
2021/01/17 08:49:04;;;;;;;;;;;1.70;79.10;;;;;;4983749;28;19926;-76
2021/01/17 08:51:30;;;;;;;;;;;1.70;79.00;;;;;;4977743;28;20008;-76
2021/01/17 08:54:17;;;;;;;;;;;1.70;79.10;;;;;;4982936;28;19932;-76
2021/01/17 08:56:43;;;;;;;;;;;1.70;79.00;;;;;;4977865;28;19925;-75
2021/01/17 08:59:10;;;;;;;;;;;1.70;79.00;;;;;;4985224;28;19961;-76
2021/01/17 09:01:57;;;;;;;;;;;1.80;79.10;;;;;;4968335;28;19936;-77
2021/01/17 09:04:25;;;;;;;;;;;1.80;79.00;;;;;;4985749;28;20022;-76
2021/01/17 09:06:52;;;;;;;;;;;1.70;78.70;;;;;;4983634;28;20355;-76
2021/01/17 09:09:19;;;;;;;;;;;1.70;78.80;;;;;;4980657;28;19930;-76
2021/01/17 09:11:45;;;;;;;;;;;1.70;78.70;;;;;;4965031;28;19930;-76
2021/01/17 09:14:17;;;;;;;;;;;1.60;79.00;;;;;;4976413;28;19932;-76
2021/01/17 09:16:46;;;;;;;;;;;1.60;79.00;;;;;;4981000;28;19932;-77
2021/01/17 09:19:14;;;;;;;;;;;1.60;78.80;;;;;;4985969;28;20421;-77
2021/01/17 09:21:40;;;;;;;;;;;1.50;78.90;;;;;;4997765;28;19989;-77
2021/01/17 09:24:11;;;;;;;;;;;1.50;79.00;;;;;;4997965;28;19929;-76
2021/01/17 09:26:45;;;;;;;;;;;1.50;79.20;;;;;;4982024;28;19945;-76
2021/01/17 09:29:23;;;;;;;;;;;1.60;79.40;;;;;;4968614;28;20511;-76
2021/01/17 09:31:54;;;;;;;;;;;1.70;79.30;;;;;;4986116;28;19929;-76
2021/01/17 09:34:23;;;;;;;;;;;1.70;79.10;;;;;;4970496;28;19937;-76
2021/01/17 09:36:50;;;;;;;;;;;1.70;79.20;;;;;;4988870;28;19949;-76
2021/01/17 09:39:26;;;;;;;;;;;1.70;79.10;;;;;;4984369;28;19933;-76
2021/01/17 09:41:52;;;;;;;;;;;1.80;78.90;;;;;;4985656;28;19951;-76
2021/01/17 09:44:20;;;;;;;;;;;1.80;78.70;;;;;;4985730;28;19937;-76
2021/01/17 09:46:46;;;;;;;;;;;1.90;78.60;;;;;;4983724;28;19934;-76
2021/01/17 09:49:12;;;;;;;;;;;1.90;78.70;;;;;;4985178;28;19930;-76
2021/01/17 09:51:44;;;;;;;;;;;1.90;78.70;;;;;;4971136;28;19933;-76
2021/01/17 09:54:10;;;;;;;;;;;2.00;78.60;;;;;;4988330;28;19932;-76
2021/01/17 09:56:39;;;;;;;;;;;2.00;78.50;;;;;;4988796;28;19972;-75
2021/01/17 09:59:09;;;;;;;;;;;2.00;78.30;;;;;;4980802;28;20021;-76
2021/01/17 10:01:36;;;;;;;;;;;2.10;78.20;;;;;;4988186;28;19934;-76
2021/01/17 10:04:04;;;;;;;;;;;2.10;78.20;;;;;;4970315;28;19925;-76
2021/01/17 10:06:32;;;;;;;;;;;2.10;78.30;;;;;;4984319;28;19988;-76
2021/01/17 10:08:59;;;;;;;;;;;2.10;78.20;;;;;;4983161;28;21944;-77
2021/01/17 10:11:26;;;;;;;;;;;2.10;78.30;;;;;;4985026;28;19933;-76
2021/01/17 10:13:53;;;;;;;;;;;2.10;78.50;;;;;;4986146;28;19957;-76
2021/01/17 10:16:21;;;;;;;;;;;2.10;78.40;;;;;;4984538;28;19926;-76
2021/01/17 10:18:47;;;;;;;;;;;2.10;78.50;;;;;;4981273;28;19926;-76
2021/01/17 10:21:14;;;;;;;;;;;2.10;78.30;;;;;;4965924;28;19934;-76
